Weather reports worldwide

Advertisment
Memmingen, Germany (10947): temperature & dewpoint: 14.01.2021 13:00:00 - 20.01.2021 13:00:00 (CET)Memmingen, Germany (10947): wind speed: 14.01.2021 13:00:00 - 20.01.2021 13:00:00 (CET)Memmingen, Germany (10947): wind direction: 14.01.2021 13:00:00 - 20.01.2021 13:00:00 (CET)Memmingen, Germany (10947): visibility: 14.01.2021 13:00:00 - 20.01.2021 13:00:00 (CET)
Date & Time tt [°C] td [°C] ff [km/h] ff [kn] dd vv [km]
20.01.2021 13:00:00 4,0 -3,0 11 6 SSW 10
20.01.2021 12:00:00 4,0 -3,0 13 7 S 10
20.01.2021 11:00:00 2,0 -3,0 16 9 SW 10
20.01.2021 10:00:00 0,0 -4,0 13 7 SSW 10
20.01.2021 09:00:00 1,0 -4,0 21 11 SW 10
20.01.2021 08:00:00 -3,0 -6,0 16 9 SSW 10
20.01.2021 07:00:00 0,0 -3,0 13 7 SW 10
20.01.2021 06:00:00 -1,0 -4,0 16 9 SW 10
20.01.2021 05:00:00 -1,0 -4,0 22 12 SSW 10
20.01.2021 04:00:00 -1,0 -5,0 16 9 SSW 10
20.01.2021 03:00:00 1,0 -4,0 21 11 SSW 10
20.01.2021 02:00:00 2,0 -4,0 22 12 SSW 10
20.01.2021 01:00:00 2,0 -4,0 18 10 SW 10
20.01.2021 00:00:00 3,0 -3,0 22 12 SW 10
19.01.2021 23:00:00 3,0 -2,0 11 6 SW 10
19.01.2021 22:00:00 3,0 -2,0 21 11 SSW 10
19.01.2021 21:00:00 3,0 -2,0 16 9 SSW 10
19.01.2021 20:00:00 3,0 -2,0 15 8 WSW 10
19.01.2021 19:00:00 2,0 -2,0 22 12 SSW 10
19.01.2021 18:00:00 1,0 -3,0 24 13 SW 10
19.01.2021 17:00:00 1,0 -4,0 31 17 SW 10
19.01.2021 16:00:00 1,0 -3,0 41 22 SW 10
19.01.2021 15:00:00 1,0 -4,0 37 20 SW 10
19.01.2021 14:00:00 1,0 -5,0 35 19 SW 10
19.01.2021 13:00:00 -1,0 -4,0 26 14 SW 10
19.01.2021 12:00:00 -1,0 -5,0 21 11 SW 10
19.01.2021 11:00:00 -3,0 -6,0 22 12 SSW 10
19.01.2021 10:00:00 -4,0 -7,0 24 13 SSW 10
19.01.2021 09:00:00 -4,0 -6,0 18 10 SSW 10
19.01.2021 08:00:00 -6,0 -7,0 16 9 SW 10
19.01.2021 07:00:00 -7,0 -9,0 16 9 SSW 10
19.01.2021 06:00:00 -6,0 -8,0 15 8 SW 10
19.01.2021 05:00:00 -6,0 -8,0 11 6 SW 10
19.01.2021 04:00:00 -5,0 -6,0 15 8 SW 10
19.01.2021 03:00:00 -3,0 -5,0 22 12 WSW 10
19.01.2021 02:00:00 -5,0 -6,0 15 8 SW 10
19.01.2021 01:00:00 -2,0 -3,0 21 11 SW 10
19.01.2021 00:00:00 -1,0 -3,0 18 10 SW 10
18.01.2021 23:00:00 -1,0 -3,0 18 10 SW 10
18.01.2021 22:00:00 -1,0 -3,0 13 7 SW 10
18.01.2021 21:00:00 -1,0 -3,0 15 8 SW 10
18.01.2021 20:00:00 -1,0 -2,0 15 8 SW 10
18.01.2021 19:00:00 -1,0 -2,0 21 11 WSW 10
18.01.2021 18:00:00 0,0 -2,0 22 12 SW 10
18.01.2021 17:00:00 0,0 -2,0 22 12 SW 10
18.01.2021 16:00:00 0,0 -2,0 21 11 WSW 10
18.01.2021 15:00:00 0,0 -2,0 22 12 SW 10
18.01.2021 14:00:00 0,0 -1,0 21 11 WSW 10
18.01.2021 13:00:00 0,0 -1,0 21 11 SW 10
18.01.2021 12:00:00 0,0 -2,0 21 11 SW 10
18.01.2021 11:00:00 0,0 -2,0 22 12 WSW 10
18.01.2021 10:00:00 0,0 -1,0 18 10 SW 10
18.01.2021 09:00:00 0,0 -1,0 13 7 SW 10
18.01.2021 08:00:00 0,0 -1,0 24 13 WSW 10
18.01.2021 07:00:00 0,0 -1,0 21 11 WSW 10
18.01.2021 06:00:00 0,0 -1,0 22 12 WSW 7
18.01.2021 05:00:00 -1,0 -1,0 21 11 WSW 4,0
18.01.2021 04:00:00 0,0 -1,0 22 12 WSW 10
18.01.2021 03:00:00 0,0 -1,0 22 12 WSW 10
18.01.2021 02:00:00 0,0 -1,0 21 11 WSW 10
18.01.2021 01:00:00 0,0 -1,0 21 11 WSW 10
18.01.2021 00:00:00 0,0 -1,0 21 11 WSW 10
17.01.2021 23:00:00 0,0 -1,0 16 9 WSW 10
17.01.2021 22:00:00 0,0 -1,0 16 9 WSW 10
17.01.2021 21:00:00 0,0 0,0 18 10 WSW 10
17.01.2021 20:00:00 0,0 0,0 15 8 WSW 8
17.01.2021 19:00:00 0,0 -1,0 15 8 WSW 10
17.01.2021 18:00:00 0,0 -1,0 13 7 WSW 10
17.01.2021 17:00:00 0,0 -1,0 15 8 WSW 10
17.01.2021 16:00:00 -1,0 -1,0 13 7 W 2,3
17.01.2021 15:00:00 -1,0 -1,0 5 3 WSW 2,0
17.01.2021 14:00:00 -1,0 -1,0 13 7 WSW 3,0
17.01.2021 13:00:00 -1,0 -1,0 11 6 SW 7
17.01.2021 12:00:00 -2,0 -2,0 11 6 WSW 2,5
17.01.2021 11:00:00 -2,0 -3,0 11 6 WSW 3,0
17.01.2021 10:00:00 -3,0 -3,0 9 5 WSW 2,2
17.01.2021 09:00:00 -3,0 -3,0 8 4 WSW 3,0
17.01.2021 08:00:00 -3,0 -4,0 11 6 WSW 1,1
17.01.2021 07:00:00 -3,0 -4,0 18 10 WSW 1,5
17.01.2021 06:00:00 -3,0 -4,0 22 12 WSW 1,5
17.01.2021 05:00:00 -3,0 -4,0 15 8 SW 2,6
17.01.2021 04:00:00 -3,0 -4,0 21 11 SW 2,5
17.01.2021 03:00:00 -4,0 -5,0 13 7 SSW 4,5
17.01.2021 02:00:00 -4,0 -6,0 21 11 SW 5
17.01.2021 01:00:00 -5,0 -6,0 16 9 SW 9
17.01.2021 00:00:00 -5,0 -6,0 18 10 SW 6
16.01.2021 23:00:00 -5,0 -6,0 15 8 SW 6
16.01.2021 22:00:00 -5,0 -6,0 18 10 SW 7
16.01.2021 21:00:00 -5,0 -6,0 18 10 WSW 9
16.01.2021 20:00:00 -5,0 -7,0 16 9 SW 10
16.01.2021 19:00:00 -5,0 -7,0 9 5 SW 10
16.01.2021 18:00:00 -5,0 -6,0 16 9 SW 10
16.01.2021 17:00:00 -5,0 -6,0 13 7 W 10
16.01.2021 16:00:00 -4,0 -6,0 11 6 W 10
16.01.2021 15:00:00 -4,0 -6,0 11 6 SW 10
16.01.2021 14:00:00 -4,0 -6,0 11 6 SW 10
16.01.2021 13:00:00 -4,0 -7,0 13 7 SW 10
16.01.2021 12:00:00 -4,0 -6,0 13 7 SW 6
16.01.2021 11:00:00 -4,0 -6,0 15 8 SW 4,5
16.01.2021 10:00:00 -5,0 -6,0 5 3 SSW 4,1
16.01.2021 09:00:00 -5,0 -6,0 11 6 SW 4,6
16.01.2021 08:00:00 -5,0 -6,0 9 5 SSW 4,0
16.01.2021 07:00:00 -5,0 -6,0 11 6 SW 3,5
16.01.2021 06:00:00 -5,0 -6,0 8 4 SW 3,0
16.01.2021 05:00:00 -5,0 -6,0 9 5 SSW 8
16.01.2021 04:00:00 -5,0 -7,0 9 5 SSW 9
16.01.2021 03:00:00 -5,0 -7,0 9 5 SSW 7
16.01.2021 02:00:00 -5,0 -6,0 5 3 SW 6
16.01.2021 01:00:00 -5,0 -6,0 5 3 SSW 5
16.01.2021 00:00:00 -5,0 -6,0 5 3 W 7
15.01.2021 23:00:00 -5,0 -6,0 5 3 WSW 7
15.01.2021 22:00:00 -5,0 -6,0 8 4 WSW 8
15.01.2021 21:00:00 -6,0 -7,0 9 5 SSW 9
15.01.2021 20:00:00 -7,0 -7,0 8 4 SSW 8
15.01.2021 19:00:00 -8,0 -10,0 8 4 S 8
15.01.2021 18:00:00 -8,0 -8,0 8 4 SSE 6
15.01.2021 17:00:00 -7,0 -8,0 5 3 S 10
15.01.2021 16:00:00 -6,0 -7,0 2 1 - 10
15.01.2021 15:00:00 -4,0 -6,0 9 5 NE 10
15.01.2021 14:00:00 -5,0 -7,0 11 6 NNE 10
15.01.2021 13:00:00 -4,0 -6,0 9 5 NE 10
15.01.2021 12:00:00 -5,0 -7,0 15 8 ENE 10
15.01.2021 11:00:00 -5,0 -6,0 16 9 ENE 10
15.01.2021 10:00:00 -6,0 -6,0 15 8 ENE 3,7
15.01.2021 09:00:00 -7,0 -8,0 11 6 ENE 5
15.01.2021 08:00:00 -7,0 -8,0 11 6 NE 8
15.01.2021 07:00:00 -6,0 -7,0 15 8 NE 10
15.01.2021 06:00:00 -5,0 -6,0 16 9 ENE 10
15.01.2021 05:00:00 -4,0 -5,0 13 7 ENE 10
15.01.2021 04:00:00 -4,0 -5,0 15 8 ENE 10
15.01.2021 03:00:00 -3,0 -5,0 18 10 ENE 10
15.01.2021 02:00:00 -4,0 -5,0 13 7 E 10
15.01.2021 01:00:00 -3,0 -4,0 16 9 ENE 10
15.01.2021 00:00:00 -3,0 -4,0 11 6 E 10
14.01.2021 23:00:00 -3,0 -4,0 15 8 ENE 10
14.01.2021 22:00:00 -3,0 -4,0 5 3 E 10
14.01.2021 21:00:00 -3,0 -4,0 9 5 E 10
14.01.2021 20:00:00 -3,0 -4,0 13 7 E 10
14.01.2021 19:00:00 -4,0 -5,0 8 4 ENE 10
14.01.2021 18:00:00 -4,0 -5,0 2 1 - 10
14.01.2021 17:00:00 -4,0 -5,0 9 5 S 10
14.01.2021 16:00:00 -5,0 -5,0 9 5 S 10
14.01.2021 15:00:00 -3,0 -4,0 5 3 WSW 10
14.01.2021 14:00:00 -3,0 -4,0 16 9 SSW 4,1
14.01.2021 13:00:00 -3,0 -4,0 11 6 SW 10

tt = temperature
td = dewpoint
ff = wind speed
dd = wind direction
vv = visibility

Next stations